createdAt,value
2022-09-02T00:01:45.432Z,9.18
2022-09-02T00:04:19.501Z,8.48
2022-09-02T00:06:49.120Z,8.90
2022-09-02T00:09:19.432Z,7.95
2022-09-02T00:11:50.374Z,8.70
2022-09-02T00:14:23.510Z,8.57
2022-09-02T00:16:53.624Z,8.38
2022-09-02T00:19:26.867Z,11.57
2022-09-02T00:21:56.099Z,10.80
2022-09-02T00:24:25.265Z,8.68
2022-09-02T00:26:55.329Z,8.40
2022-09-02T00:29:26.365Z,10.57
2022-09-02T00:31:53.906Z,8.10
2022-09-02T00:34:21.391Z,7.90
2022-09-02T00:36:49.042Z,6.75
2022-09-02T00:39:16.570Z,7.72
2022-09-02T00:41:45.051Z,6.75
2022-09-02T00:44:16.468Z,5.57
2022-09-02T00:46:44.165Z,11.25
2022-09-02T00:49:25.944Z,6.30
2022-09-02T00:51:56.497Z,7.72
2022-09-02T00:54:26.683Z,5.88
2022-09-02T00:56:56.493Z,6.10
2022-09-02T00:59:55.234Z,6.28
2022-09-02T01:02:25.539Z,5.60
2022-09-02T01:04:57.075Z,5.78
2022-09-02T01:07:27.523Z,6.07
2022-09-02T01:09:56.971Z,5.50
2022-09-02T01:12:28.056Z,6.00
2022-09-02T01:14:55.657Z,6.07
2022-09-02T01:17:23.206Z,6.10
2022-09-02T01:19:55.272Z,7.05
2022-09-02T01:22:26.895Z,6.15
2022-09-02T01:24:58.104Z,7.97
2022-09-02T01:27:26.194Z,11.23
2022-09-02T01:29:56.228Z,6.57
2022-09-02T01:32:25.556Z,6.82
2022-09-02T01:34:54.698Z,10.13
2022-09-02T01:37:22.730Z,8.00
2022-09-02T01:39:52.534Z,8.35
2022-09-02T01:42:21.401Z,8.77
2022-09-02T01:44:49.333Z,8.07
2022-09-02T01:47:23.767Z,9.40
2022-09-02T01:49:52.015Z,10.75
2022-09-02T01:52:22.986Z,9.75
2022-09-02T01:54:51.524Z,9.75
2022-09-02T01:57:19.349Z,9.52
2022-09-02T01:59:47.138Z,8.88
2022-09-02T02:02:19.495Z,8.32
2022-09-02T02:04:48.328Z,8.70
2022-09-02T02:07:18.959Z,7.68
2022-09-02T02:09:47.232Z,7.05
2022-09-02T02:12:16.779Z,6.90
2022-09-02T02:14:44.352Z,9.35
2022-09-02T02:17:11.963Z,7.15
2022-09-02T02:19:40.809Z,8.02
2022-09-02T02:22:09.360Z,8.07
2022-09-02T02:24:37.359Z,8.98
2022-09-02T02:27:05.533Z,7.70
2022-09-02T02:29:33.073Z,8.82
2022-09-02T02:32:01.302Z,9.32
2022-09-02T02:34:28.956Z,8.63
2022-09-02T02:36:57.589Z,10.88
2022-09-02T02:39:25.100Z,8.68
2022-09-02T02:41:52.634Z,9.00
2022-09-02T02:44:20.407Z,7.85
2022-09-02T02:46:47.998Z,7.47
2022-09-02T02:49:16.676Z,7.40
2022-09-02T02:51:44.895Z,8.07
2022-09-02T02:54:14.669Z,8.95
2022-09-02T02:56:42.428Z,8.40
2022-09-02T02:59:09.967Z,9.90
2022-09-02T03:01:38.460Z,10.95
2022-09-02T03:04:06.419Z,21.13
2022-09-02T03:06:34.566Z,7.43
2022-09-02T03:09:04.045Z,8.65
2022-09-02T03:11:32.329Z,8.77
2022-09-02T03:13:59.990Z,8.88
2022-09-02T03:16:27.831Z,9.63
2022-09-02T03:18:56.183Z,8.68
2022-09-02T03:21:23.991Z,10.45
2022-09-02T03:23:51.458Z,11.13
2022-09-02T03:26:25.365Z,11.75
2022-09-02T03:28:57.205Z,8.40
2022-09-02T03:31:27.110Z,10.57
2022-09-02T03:33:55.910Z,10.85
2022-09-02T03:36:33.933Z,13.93
2022-09-02T03:39:02.524Z,10.65
2022-09-02T03:41:30.376Z,12.75
2022-09-02T03:43:59.493Z,10.90
2022-09-02T03:46:29.776Z,7.68
2022-09-02T03:48:57.828Z,6.40
2022-09-02T03:51:26.044Z,11.45
2022-09-02T03:53:55.273Z,9.25
2022-09-02T03:56:24.807Z,10.52
2022-09-02T03:58:53.125Z,10.38
2022-09-02T04:01:29.080Z,9.55
2022-09-02T04:04:06.014Z,11.38
2022-09-02T04:06:35.178Z,11.82
2022-09-02T04:09:05.229Z,11.75
2022-09-02T04:11:34.143Z,8.55
2022-09-02T04:14:01.766Z,12.52
2022-09-02T04:16:30.651Z,10.63
2022-09-02T04:19:04.820Z,10.48
2022-09-02T04:21:36.036Z,12.93
2022-09-02T04:24:05.881Z,11.18
2022-09-02T04:26:33.919Z,11.30
2022-09-02T04:29:01.389Z,10.07
2022-09-02T04:31:31.755Z,9.35
2022-09-02T04:34:00.778Z,11.45
2022-09-02T04:36:30.682Z,10.63
2022-09-02T04:39:02.520Z,10.10
2022-09-02T04:41:35.790Z,10.45
2022-09-02T04:44:07.896Z,13.20
2022-09-02T04:46:39.792Z,12.35
2022-09-02T04:49:11.876Z,15.05
2022-09-02T04:51:41.753Z,14.25
2022-09-02T04:54:11.076Z,11.40
2022-09-02T04:56:41.853Z,11.40
2022-09-02T04:59:10.394Z,12.75
2022-09-02T05:01:43.371Z,11.55
2022-09-02T05:04:17.970Z,13.43
2022-09-02T05:06:49.614Z,14.63
2022-09-02T05:09:20.082Z,13.70
2022-09-02T05:11:57.905Z,14.25
2022-09-02T05:14:29.652Z,12.27
2022-09-02T05:17:07.266Z,11.32
2022-09-02T05:19:37.711Z,10.52
2022-09-02T05:22:05.544Z,12.57
2022-09-02T05:24:37.529Z,13.63
2022-09-02T05:27:09.417Z,15.27
2022-09-02T05:29:37.519Z,13.73
2022-09-02T05:32:05.622Z,11.32
2022-09-02T05:34:33.750Z,10.57
2022-09-02T05:37:03.999Z,13.05
2022-09-02T05:39:33.102Z,13.18
2022-09-02T05:42:02.019Z,10.95
2022-09-02T05:44:31.585Z,11.88
2022-09-02T05:47:00.386Z,11.95
2022-09-02T05:49:28.792Z,16.33
2022-09-02T05:52:10.524Z,14.52
2022-09-02T05:54:41.487Z,15.13
2022-09-02T05:57:16.542Z,12.85
2022-09-02T05:59:58.007Z,12.00
2022-09-02T06:02:45.799Z,12.10
2022-09-02T06:05:27.681Z,13.05
2022-09-02T06:08:07.453Z,13.90
2022-09-02T06:10:43.509Z,12.05
2022-09-02T06:13:16.123Z,11.52
2022-09-02T06:15:44.638Z,16.33
2022-09-02T06:18:14.401Z,15.27
2022-09-02T06:20:47.770Z,14.10
2022-09-02T06:23:17.653Z,14.05
2022-09-02T06:25:48.177Z,14.48
2022-09-02T06:28:16.556Z,13.55
2022-09-02T06:30:48.792Z,13.80
2022-09-02T06:33:21.049Z,13.60
2022-09-02T06:35:49.755Z,12.23
2022-09-02T06:38:20.719Z,12.60
2022-09-02T06:40:51.480Z,12.27
2022-09-02T06:43:24.520Z,11.55
2022-09-02T06:46:21.898Z,10.25
2022-09-02T06:48:52.451Z,11.20
2022-09-02T06:51:26.773Z,9.82
2022-09-02T06:53:55.530Z,10.70
2022-09-02T06:56:26.920Z,10.65
2022-09-02T06:58:54.942Z,9.30
2022-09-02T07:01:35.825Z,9.93
2022-09-02T07:04:23.593Z,9.82
2022-09-02T07:06:54.970Z,10.20
2022-09-02T07:09:31.623Z,9.63
2022-09-02T07:12:06.405Z,9.20
2022-09-02T07:14:41.289Z,10.48
2022-09-02T07:17:12.580Z,9.60
2022-09-02T07:19:40.147Z,10.00
2022-09-02T07:22:08.183Z,9.95
2022-09-02T07:24:41.921Z,10.40
2022-09-02T07:27:11.508Z,9.40
2022-09-02T07:29:41.586Z,9.68
2022-09-02T07:32:11.541Z,8.52
2022-09-02T07:34:39.202Z,9.35
2022-09-02T07:37:10.615Z,10.13
2022-09-02T07:39:40.330Z,10.32
2022-09-02T07:42:10.523Z,9.00
2022-09-02T07:44:38.277Z,8.48
2022-09-02T07:47:07.811Z,9.38
2022-09-02T07:52:28.596Z,8.10
2022-09-02T07:54:56.704Z,9.00
2022-09-02T07:57:25.710Z,8.13
2022-09-02T07:59:53.416Z,8.70
2022-09-02T08:02:21.020Z,8.35
2022-09-02T08:04:48.687Z,8.02
2022-09-02T08:07:19.227Z,7.20
2022-09-02T08:09:46.729Z,7.38
2022-09-02T08:12:15.175Z,7.45
2022-09-02T08:14:44.216Z,6.90
2022-09-02T08:17:11.823Z,6.63
2022-09-02T08:19:39.320Z,5.82
2022-09-02T08:22:07.191Z,6.55
2022-09-02T08:24:34.724Z,6.70
2022-09-02T08:27:02.453Z,6.63
2022-09-02T08:29:29.936Z,6.15
2022-09-02T08:31:57.536Z,6.15
2022-09-02T08:34:25.004Z,6.35
2022-09-02T08:36:56.195Z,6.20
2022-09-02T08:39:25.091Z,6.87
2022-09-02T08:41:52.676Z,6.43
2022-09-02T08:44:24.789Z,5.65
2022-09-02T08:46:56.825Z,6.25
2022-09-02T08:49:36.103Z,5.97
2022-09-02T08:52:05.824Z,6.15
2022-09-02T08:54:46.544Z,6.20
2022-09-02T08:57:14.194Z,6.03
2022-09-02T08:59:43.992Z,6.30
2022-09-02T09:02:35.920Z,5.88
2022-09-02T09:05:26.652Z,6.55
2022-09-02T09:08:14.029Z,6.05
2022-09-02T09:11:19.674Z,5.78
2022-09-02T09:14:05.421Z,5.90
2022-09-02T09:16:48.915Z,6.25
2022-09-02T09:19:28.872Z,5.53
2022-09-02T09:22:00.897Z,6.25
2022-09-02T09:24:38.547Z,5.70
2022-09-02T09:27:21.324Z,6.53
2022-09-02T09:29:50.310Z,5.93
2022-09-02T09:32:46.816Z,6.40
2022-09-02T09:35:16.683Z,6.22
2022-09-02T09:37:48.221Z,6.18
2022-09-02T09:40:26.008Z,5.78
2022-09-02T09:43:06.452Z,6.07
2022-09-02T09:45:48.363Z,5.28
2022-09-02T09:48:31.859Z,5.72
2022-09-02T09:50:59.258Z,5.35
2022-09-02T09:53:27.958Z,7.13
2022-09-02T09:55:58.189Z,5.90
2022-09-02T09:58:49.638Z,6.00
2022-09-02T10:01:31.864Z,6.25
2022-09-02T10:04:45.978Z,6.68
2022-09-02T10:07:14.222Z,7.68
2022-09-02T10:09:42.338Z,7.30
2022-09-02T10:12:13.382Z,7.15
2022-09-02T10:14:45.328Z,7.72
2022-09-02T10:17:42.371Z,7.05
2022-09-02T10:20:48.258Z,7.55
2022-09-02T10:23:45.312Z,7.40
2022-09-02T10:26:20.849Z,7.13
2022-09-02T10:28:58.843Z,7.15
2022-09-02T10:31:32.811Z,6.85
2022-09-02T10:34:31.308Z,6.63
2022-09-02T10:37:31.064Z,6.97
2022-09-02T10:40:11.187Z,7.38
2022-09-02T10:43:07.226Z,7.07
2022-09-02T10:45:51.140Z,5.97
2022-09-02T10:48:40.755Z,5.47
2022-09-02T10:51:27.437Z,5.40
2022-09-02T10:54:33.700Z,5.35
2022-09-02T10:57:17.245Z,49.65
2022-09-02T10:59:55.399Z,7.15
2022-09-02T11:02:27.656Z,6.70
2022-09-02T11:05:35.262Z,6.22
2022-09-02T11:08:31.451Z,5.75
2022-09-02T11:11:05.068Z,6.00
2022-09-02T11:16:25.495Z,5.68
2022-09-02T11:19:09.815Z,5.63
2022-09-02T11:21:43.371Z,7.57
2022-09-02T11:24:31.252Z,5.45
2022-09-02T11:27:25.978Z,5.10
2022-09-02T11:30:06.548Z,4.93
2022-09-02T11:33:07.935Z,5.15
2022-09-02T11:35:39.196Z,4.40
2022-09-02T11:38:15.788Z,5.15
2022-09-02T11:44:41.863Z,4.85
2022-09-02T11:47:25.969Z,5.18
2022-09-02T11:50:16.655Z,4.78
2022-09-02T11:52:51.225Z,4.70
2022-09-02T11:55:33.284Z,4.95
2022-09-02T11:58:02.038Z,5.20
2022-09-02T12:00:37.210Z,5.15
2022-09-02T12:03:11.985Z,5.35
2022-09-02T12:05:52.312Z,4.38
2022-09-02T12:08:29.079Z,3.90
2022-09-02T12:11:00.361Z,4.70
2022-09-02T12:13:43.752Z,4.70
2022-09-02T12:16:17.044Z,4.32
2022-09-02T12:19:08.757Z,4.75
2022-09-02T12:21:57.520Z,4.38
2022-09-02T12:24:26.394Z,4.68
2022-09-02T12:26:53.908Z,4.53
2022-09-02T12:29:25.174Z,4.50
2022-09-02T12:31:55.912Z,5.25
2022-09-02T12:34:26.710Z,4.65
2022-09-02T12:36:54.435Z,4.80
2022-09-02T12:39:25.058Z,4.25
2022-09-02T12:42:08.167Z,4.45
2022-09-02T12:45:08.633Z,11.48
2022-09-02T12:48:01.653Z,5.20
2022-09-02T12:50:44.676Z,4.28
2022-09-02T12:53:30.454Z,3.90
2022-09-02T12:56:04.521Z,4.13
2022-09-02T12:59:02.351Z,3.83
2022-09-02T13:01:51.755Z,4.53
2022-09-02T13:04:43.302Z,4.50
2022-09-02T13:07:41.732Z,4.35
2022-09-02T13:10:36.900Z,3.88
2022-09-02T13:13:36.708Z,4.50
2022-09-02T13:16:18.403Z,4.10
2022-09-02T13:19:17.297Z,4.45
2022-09-02T13:21:50.704Z,4.30
2022-09-02T13:24:36.611Z,4.43
2022-09-02T13:27:42.616Z,4.45
2022-09-02T13:30:32.116Z,5.22
2022-09-02T13:33:08.457Z,4.90
2022-09-02T13:35:41.239Z,4.35
2022-09-02T13:38:13.402Z,4.40
2022-09-02T13:40:46.170Z,4.47
2022-09-02T13:43:13.903Z,4.30
2022-09-02T13:45:43.207Z,4.20
2022-09-02T13:48:19.373Z,4.57
2022-09-02T13:50:49.750Z,4.45
2022-09-02T13:53:59.037Z,4.80
2022-09-02T13:56:25.551Z,4.65
2022-09-02T13:58:57.239Z,4.68
2022-09-02T14:01:29.475Z,5.07
2022-09-02T14:03:59.875Z,5.07
2022-09-02T14:06:33.533Z,4.40
2022-09-02T14:09:05.232Z,4.35
2022-09-02T14:11:43.031Z,4.60
2022-09-02T14:14:20.411Z,24.48
2022-09-02T14:16:48.333Z,5.43
2022-09-02T14:19:16.657Z,4.38
2022-09-02T14:21:52.811Z,4.60
2022-09-02T14:24:26.306Z,4.30
2022-09-02T14:26:56.578Z,4.70
2022-09-02T14:29:25.275Z,4.40
2022-09-02T14:32:15.888Z,4.40
2022-09-02T14:34:47.925Z,4.50
2022-09-02T14:37:33.145Z,4.18
2022-09-02T14:40:00.796Z,4.28
2022-09-02T14:42:29.558Z,4.25
2022-09-02T14:44:59.715Z,3.90
2022-09-02T14:47:28.571Z,4.32
2022-09-02T14:49:57.540Z,6.35
2022-09-02T14:52:27.028Z,5.20
2022-09-02T14:54:56.895Z,5.10
2022-09-02T14:57:35.967Z,4.55
2022-09-02T15:00:11.553Z,4.13
2022-09-02T15:02:43.145Z,4.80
2022-09-02T15:05:14.778Z,4.22
2022-09-02T15:07:42.951Z,4.65
2022-09-02T15:10:10.661Z,4.63
2022-09-02T15:12:56.291Z,4.30
2022-09-02T15:15:24.933Z,4.28
2022-09-02T15:17:52.430Z,4.20
2022-09-02T15:20:21.920Z,3.97
2022-09-02T15:22:50.813Z,3.78
2022-09-02T15:25:18.471Z,3.42
2022-09-02T15:27:46.034Z,3.70
2022-09-02T15:30:13.810Z,3.42
2022-09-02T15:32:41.440Z,3.58
2022-09-02T15:35:09.909Z,3.65
2022-09-02T15:37:38.442Z,3.90
2022-09-02T15:40:08.433Z,3.70
2022-09-02T15:42:39.617Z,3.63
2022-09-02T15:45:11.245Z,3.80
2022-09-02T15:47:38.931Z,3.75
2022-09-02T15:50:06.863Z,3.65
2022-09-02T15:52:35.458Z,3.83
2022-09-02T15:55:04.270Z,4.45
2022-09-02T15:57:31.716Z,4.10
2022-09-02T16:00:00.313Z,4.13
2022-09-02T16:02:27.881Z,3.80
2022-09-02T16:04:56.551Z,3.80
2022-09-02T16:07:24.516Z,4.13
2022-09-02T16:09:52.059Z,4.00
2022-09-02T16:12:19.553Z,3.67
2022-09-02T16:14:51.318Z,3.83
2022-09-02T16:17:18.913Z,4.22
2022-09-02T16:19:46.366Z,3.65
2022-09-02T16:22:13.958Z,3.70
2022-09-02T16:24:41.542Z,3.53
2022-09-02T16:27:10.275Z,3.70
2022-09-02T16:29:39.797Z,3.50
2022-09-02T16:32:24.484Z,3.70
2022-09-02T16:34:56.179Z,4.10
2022-09-02T16:37:23.724Z,3.97
2022-09-02T16:39:51.841Z,3.25
2022-09-02T16:42:19.642Z,3.05
2022-09-02T16:44:52.320Z,3.10
2022-09-02T16:47:20.108Z,2.97
2022-09-02T16:49:48.158Z,3.45
2022-09-02T16:52:15.943Z,3.15
2022-09-02T16:54:44.215Z,3.78
2022-09-02T16:57:12.101Z,3.03
2022-09-02T16:59:39.651Z,3.78
2022-09-02T17:02:07.413Z,3.10
2022-09-02T17:04:34.989Z,3.35
2022-09-02T17:07:02.591Z,3.45
2022-09-02T17:09:30.139Z,3.58
2022-09-02T17:11:57.764Z,3.53
2022-09-02T17:14:25.585Z,3.95
2022-09-02T17:16:54.689Z,3.75
2022-09-02T17:19:22.813Z,3.50
2022-09-02T17:21:54.763Z,4.13
2022-09-02T17:24:24.968Z,3.80
2022-09-02T17:26:56.459Z,3.67
2022-09-02T17:32:19.012Z,3.45
2022-09-02T17:34:46.916Z,3.10
2022-09-02T17:37:14.475Z,2.90
2022-09-02T17:39:42.156Z,3.35
2022-09-02T17:42:09.751Z,3.08
2022-09-02T17:44:39.865Z,3.90
2022-09-02T17:47:16.190Z,3.90
2022-09-02T17:49:46.476Z,3.25
2022-09-02T17:52:17.238Z,3.47
2022-09-02T17:54:47.010Z,3.33
2022-09-02T17:57:17.775Z,3.30
2022-09-02T18:00:03.928Z,3.45
2022-09-02T18:02:36.542Z,3.30
2022-09-02T18:05:37.366Z,3.78
2022-09-02T18:08:23.486Z,3.22
2022-09-02T18:10:57.755Z,3.47
2022-09-02T18:13:40.379Z,3.22
2022-09-02T18:16:26.999Z,3.60
2022-09-02T18:19:19.770Z,3.40
2022-09-02T18:22:08.798Z,3.40
2022-09-02T18:25:00.608Z,3.47
2022-09-02T18:27:50.720Z,3.30
2022-09-02T18:30:40.021Z,3.17
2022-09-02T18:33:10.482Z,3.50
2022-09-02T18:35:47.575Z,3.30
2022-09-02T18:38:28.478Z,3.17
2022-09-02T18:41:13.806Z,3.42
2022-09-02T18:44:09.252Z,3.28
2022-09-02T18:46:52.703Z,3.50
2022-09-02T18:49:24.483Z,3.60
2022-09-02T18:51:57.455Z,3.60
2022-09-02T18:54:39.947Z,3.70
2022-09-02T18:57:09.414Z,3.83
2022-09-02T19:00:03.401Z,3.78
2022-09-02T19:02:56.161Z,3.50
2022-09-02T19:05:27.237Z,3.45
2022-09-02T19:08:22.217Z,3.53
2022-09-02T19:11:01.259Z,3.80
2022-09-02T19:13:57.864Z,3.83
2022-09-02T19:16:38.508Z,3.78
2022-09-02T19:19:10.715Z,3.92
2022-09-02T19:21:47.476Z,3.45
2022-09-02T19:24:42.974Z,3.60
2022-09-02T19:27:14.002Z,3.83
2022-09-02T19:29:46.019Z,4.05
2022-09-02T19:32:15.474Z,3.58
2022-09-02T19:34:45.710Z,3.85
2022-09-02T19:37:14.647Z,3.42
2022-09-02T19:39:42.879Z,3.80
2022-09-02T19:42:10.452Z,3.75
2022-09-02T19:44:39.182Z,3.90
2022-09-02T19:49:55.168Z,4.13
2022-09-02T19:52:22.701Z,4.43
2022-09-02T19:54:50.182Z,3.67
2022-09-02T19:57:17.730Z,4.15
2022-09-02T19:59:47.005Z,3.83
2022-09-02T20:02:15.556Z,4.10
2022-09-02T20:04:44.170Z,3.92
2022-09-02T20:07:12.080Z,4.13
2022-09-02T20:09:41.394Z,3.80
2022-09-02T20:12:09.621Z,4.05
2022-09-02T20:14:37.160Z,4.22
2022-09-02T20:17:06.399Z,4.10
2022-09-02T20:19:33.954Z,3.65
2022-09-02T20:22:02.879Z,4.70
2022-09-02T20:24:32.646Z,4.32
2022-09-02T20:27:15.670Z,3.95
2022-09-02T20:32:59.903Z,4.47
2022-09-02T20:36:03.442Z,4.53
2022-09-02T20:39:02.879Z,3.90
2022-09-02T20:41:38.522Z,4.30
2022-09-02T20:44:46.648Z,4.40
2022-09-02T20:47:28.791Z,4.07
2022-09-02T20:49:59.428Z,4.40
2022-09-02T20:52:45.034Z,4.20
2022-09-02T20:55:22.135Z,4.32
2022-09-02T20:58:16.690Z,4.10
2022-09-02T21:01:09.768Z,4.10
2022-09-02T21:03:52.031Z,3.92
2022-09-02T21:06:24.138Z,4.20
2022-09-02T21:09:01.023Z,4.50
2022-09-02T21:11:39.174Z,4.63
2022-09-02T21:14:14.394Z,4.28
2022-09-02T21:16:59.900Z,4.30
2022-09-02T21:19:50.685Z,3.58
2022-09-02T21:22:31.000Z,3.80
2022-09-02T21:25:05.033Z,4.22
2022-09-02T21:27:45.526Z,4.30
2022-09-02T21:30:22.875Z,4.22
2022-09-02T21:32:55.255Z,3.70
2022-09-02T21:35:37.703Z,3.90
2022-09-02T21:38:11.972Z,3.85
2022-09-02T21:40:48.294Z,3.58
2022-09-02T21:43:35.229Z,3.78
2022-09-02T21:46:32.560Z,4.05
2022-09-02T21:49:26.477Z,4.05
2022-09-02T21:52:27.743Z,3.55
2022-09-02T21:54:55.132Z,3.60
2022-09-02T21:57:27.116Z,3.78
2022-09-02T22:00:06.657Z,4.07
2022-09-02T22:02:55.160Z,4.13
2022-09-02T22:05:41.447Z,4.00
2022-09-02T22:08:48.598Z,3.90
2022-09-02T22:11:18.655Z,4.15
2022-09-02T22:13:46.117Z,4.18
2022-09-02T22:16:32.787Z,4.15
2022-09-02T22:19:10.980Z,4.60
2022-09-02T22:21:48.797Z,4.10
2022-09-02T22:24:22.572Z,4.75
2022-09-02T22:26:54.709Z,5.00
2022-09-02T22:29:37.806Z,4.68
2022-09-02T22:34:42.842Z,3.92
2022-09-02T22:37:19.044Z,4.80
2022-09-02T22:39:50.916Z,4.75
2022-09-02T22:42:40.863Z,4.75
2022-09-02T22:45:37.202Z,4.70
2022-09-02T22:48:26.439Z,5.00
2022-09-02T22:51:19.322Z,5.13
2022-09-02T22:53:48.298Z,5.45
2022-09-02T22:56:30.973Z,4.90
2022-09-02T22:59:04.474Z,5.78
2022-09-02T23:04:30.160Z,5.05
2022-09-02T23:07:05.536Z,5.45
2022-09-02T23:09:38.091Z,5.18
2022-09-02T23:12:34.432Z,5.90
2022-09-02T23:15:29.648Z,5.47
2022-09-02T23:18:18.416Z,5.18
2022-09-02T23:21:07.559Z,5.45
2022-09-02T23:23:40.510Z,5.70
2022-09-02T23:26:10.607Z,5.95
2022-09-02T23:29:05.696Z,5.53
2022-09-02T23:31:53.304Z,5.63
2022-09-02T23:34:45.709Z,6.13
2022-09-02T23:37:37.376Z,6.25
2022-09-02T23:40:21.281Z,6.17
2022-09-02T23:42:50.110Z,6.10
2022-09-02T23:45:22.337Z,6.18
2022-09-02T23:48:09.368Z,6.22
2022-09-02T23:50:51.822Z,7.00
2022-09-02T23:53:22.624Z,6.13
2022-09-02T23:56:09.794Z,6.95
2022-09-02T23:58:41.480Z,6.70
